createdAt,value
2017-05-14T00:00:06.320Z,18
2017-05-14T00:00:46.830Z,17.84
2017-05-14T00:01:27.327Z,17.86
2017-05-14T00:02:07.796Z,17.84
2017-05-14T00:02:48.324Z,18
2017-05-14T00:03:28.847Z,17.84
2017-05-14T00:04:09.358Z,17.87
2017-05-14T00:04:49.861Z,17.96
2017-05-14T00:05:30.356Z,17.92
2017-05-14T00:06:10.892Z,17.92
2017-05-14T00:06:55.684Z,17.86
2017-05-14T00:07:36.233Z,17.84
2017-05-14T00:08:16.701Z,18
2017-05-14T00:08:57.184Z,17.93
2017-05-14T00:09:37.692Z,17.92
2017-05-14T00:10:18.220Z,17.96
2017-05-14T00:10:58.738Z,18.03
2017-05-14T00:12:59.169Z,18.17
2017-05-14T00:13:39.695Z,18.18
2017-05-14T00:14:20.228Z,18.15
2017-05-14T00:15:00.748Z,18.12
2017-05-14T00:15:41.268Z,18.14
2017-05-14T00:16:21.790Z,18.26
2017-05-14T00:17:02.316Z,18.27
2017-05-14T00:17:42.850Z,18.21
2017-05-14T00:18:23.382Z,18.18
2017-05-14T00:19:03.837Z,18.23
2017-05-14T00:19:44.341Z,18.26
2017-05-14T00:20:24.841Z,18.25
2017-05-14T00:21:05.368Z,18.25
2017-05-14T00:21:46.917Z,18.21
2017-05-14T00:22:27.400Z,18.21
2017-05-14T00:23:07.886Z,18.15
2017-05-14T00:23:48.399Z,18.25
2017-05-14T00:24:28.921Z,18.08
2017-05-14T00:25:09.405Z,18.2
2017-05-14T00:25:49.876Z,18.1
2017-05-14T00:26:32.846Z,18.25
2017-05-14T00:27:13.324Z,18.25
2017-05-14T00:27:53.777Z,18.21
2017-05-14T00:28:34.371Z,18.14
2017-05-14T00:29:14.828Z,18.11
2017-05-14T00:29:55.339Z,18.1
2017-05-14T00:30:35.845Z,18.21
2017-05-14T00:31:18.941Z,18.2
2017-05-14T00:31:58.621Z,18.25
2017-05-14T00:32:39.119Z,18.18
2017-05-14T00:33:19.573Z,18.35
2017-05-14T00:34:00.047Z,18.37
2017-05-14T00:34:40.535Z,18.36
2017-05-14T00:35:21.040Z,18.42
2017-05-14T00:36:01.561Z,18.33
2017-05-14T00:36:43.542Z,18.51
2017-05-14T00:37:24.068Z,18.44
2017-05-14T00:38:04.558Z,18.36
2017-05-14T00:38:45.068Z,18.44
2017-05-14T00:39:25.558Z,18.41
2017-05-14T00:40:06.063Z,18.39
2017-05-14T00:40:46.552Z,18.52
2017-05-14T00:41:27.320Z,18.36
2017-05-14T00:42:07.838Z,18.36
2017-05-14T00:42:48.317Z,18.45
2017-05-14T00:43:28.827Z,18.45
2017-05-14T00:44:09.313Z,18.51
2017-05-14T00:44:49.816Z,18.44
2017-05-14T00:45:30.331Z,18.52
2017-05-14T00:46:10.870Z,18.41
2017-05-14T00:46:51.729Z,18.41
2017-05-14T00:47:32.232Z,18.47
2017-05-14T00:48:12.736Z,18.44
2017-05-14T00:48:53.267Z,18.44
2017-05-14T00:49:33.773Z,18.39
2017-05-14T00:50:14.262Z,18.33
2017-05-14T00:50:54.794Z,18.35
2017-05-14T00:51:37.019Z,18.33
2017-05-14T00:52:17.523Z,18.26
2017-05-14T00:52:58.052Z,18.26
2017-05-14T00:53:38.566Z,18.1
2017-05-14T00:54:19.087Z,18.12
2017-05-14T00:54:59.592Z,18.12
2017-05-14T00:55:40.112Z,18.23
2017-05-14T00:56:20.636Z,18.2
2017-05-14T00:57:01.161Z,18.11
2017-05-14T00:57:41.673Z,18.12
2017-05-14T00:58:22.195Z,18.15
2017-05-14T00:59:02.706Z,18.12
2017-05-14T00:59:43.209Z,18.11
2017-05-14T01:00:23.720Z,18.02
2017-05-14T01:01:04.209Z,18
2017-05-14T01:01:44.727Z,18
2017-05-14T01:02:25.249Z,17.99
2017-05-14T01:03:05.754Z,17.97
2017-05-14T01:03:46.266Z,18.05
2017-05-14T01:04:26.783Z,17.9
2017-05-14T01:05:07.277Z,17.9
2017-05-14T01:05:47.773Z,17.89
2017-05-14T01:06:31.399Z,17.87
2017-05-14T01:07:11.886Z,17.87
2017-05-14T01:07:52.368Z,17.82
2017-05-14T01:08:32.834Z,17.77
2017-05-14T01:09:13.344Z,17.78
2017-05-14T01:09:53.840Z,17.87
2017-05-14T01:10:34.337Z,17.9
2017-05-14T01:11:17.278Z,17.86
2017-05-14T01:11:57.524Z,17.75
2017-05-14T01:12:38.038Z,17.79
2017-05-14T01:13:18.549Z,17.72
2017-05-14T01:13:59.070Z,17.89
2017-05-14T01:14:39.541Z,17.89
2017-05-14T01:15:20.036Z,17.82
2017-05-14T01:16:00.519Z,17.75
2017-05-14T01:16:44.964Z,17.74
2017-05-14T01:17:25.474Z,17.75
2017-05-14T01:18:05.984Z,17.9
2017-05-14T01:18:46.495Z,17.86
2017-05-14T01:19:27.016Z,17.92
2017-05-14T01:20:07.531Z,17.99
2017-05-14T01:20:48.052Z,17.86
2017-05-14T01:21:29.961Z,18.02
2017-05-14T01:22:10.442Z,17.95
2017-05-14T01:22:50.927Z,17.95
2017-05-14T01:23:31.438Z,17.95
2017-05-14T01:24:11.936Z,17.93
2017-05-14T01:24:52.442Z,17.95
2017-05-14T01:25:32.920Z,18.02
2017-05-14T01:26:19.651Z,17.96
2017-05-14T01:26:59.117Z,17.99
2017-05-14T01:27:39.637Z,17.95
2017-05-14T01:28:20.137Z,17.97
2017-05-14T01:29:00.653Z,18.11
2017-05-14T01:29:41.144Z,18.11
2017-05-14T01:30:21.653Z,18.15
2017-05-14T01:31:02.119Z,18.1
2017-05-14T01:31:45.263Z,18.11
2017-05-14T01:32:25.758Z,17.93
2017-05-14T01:33:06.273Z,17.96
2017-05-14T01:33:46.719Z,17.93
2017-05-14T01:34:27.234Z,17.97
2017-05-14T01:35:07.733Z,17.93
2017-05-14T01:35:48.217Z,18.03
2017-05-14T01:36:31.010Z,17.95
2017-05-14T01:37:11.542Z,18.05
2017-05-14T01:37:52.025Z,18.03
2017-05-14T01:38:32.517Z,18
2017-05-14T01:39:13.026Z,18.05
2017-05-14T01:39:53.541Z,17.95
2017-05-14T01:40:34.021Z,17.97
2017-05-14T01:41:18.777Z,17.96
2017-05-14T01:41:56.566Z,17.92
2017-05-14T01:42:37.044Z,18.02
2017-05-14T01:43:17.573Z,18
2017-05-14T01:43:58.027Z,17.86
2017-05-14T01:44:38.545Z,17.84
2017-05-14T01:45:19.064Z,17.74
2017-05-14T01:45:59.555Z,17.74
2017-05-14T01:46:42.611Z,17.68
2017-05-14T01:47:23.121Z,17.72
2017-05-14T01:48:03.594Z,17.77
2017-05-14T01:48:44.103Z,17.72
2017-05-14T01:49:24.583Z,17.75
2017-05-14T01:50:05.130Z,17.75
2017-05-14T01:50:45.568Z,17.75
2017-05-14T01:51:26.430Z,17.77
2017-05-14T01:52:06.620Z,17.77
2017-05-14T01:52:47.136Z,17.74
2017-05-14T01:53:27.670Z,17.77
2017-05-14T01:54:08.185Z,17.72
2017-05-14T01:54:48.700Z,17.89
2017-05-14T01:55:29.234Z,17.75
2017-05-14T01:56:09.704Z,17.81
2017-05-14T01:56:50.689Z,17.82
2017-05-14T01:57:31.141Z,17.89
2017-05-14T01:58:11.644Z,17.9
2017-05-14T01:58:52.160Z,17.92
2017-05-14T02:00:40.118Z,17.66
2017-05-14T02:01:20.645Z,17.7
2017-05-14T02:02:01.173Z,17.71
2017-05-14T02:02:41.671Z,17.74
2017-05-14T02:03:22.198Z,17.72
2017-05-14T02:04:02.721Z,17.79
2017-05-14T02:04:43.236Z,17.74
2017-05-14T02:05:23.735Z,17.74
2017-05-14T02:06:04.253Z,17.77
2017-05-14T02:06:45.618Z,17.74
2017-05-14T02:07:26.052Z,17.72
2017-05-14T02:08:06.557Z,17.77
2017-05-14T02:08:47.077Z,17.9
2017-05-14T02:09:27.599Z,17.87
2017-05-14T02:10:08.120Z,17.89
2017-05-14T02:10:48.603Z,17.9
2017-05-14T02:11:29.115Z,17.9
2017-05-14T02:12:09.613Z,17.96
2017-05-14T02:12:50.114Z,17.75
2017-05-14T02:13:30.628Z,17.92
2017-05-14T02:14:11.141Z,17.81
2017-05-14T02:14:51.667Z,17.9
2017-05-14T02:15:32.179Z,17.77
2017-05-14T02:16:12.693Z,17.71
2017-05-14T02:16:53.898Z,17.74
2017-05-14T02:17:34.433Z,17.72
2017-05-14T02:18:14.945Z,17.74
2017-05-14T02:18:55.467Z,17.68
2017-05-14T02:19:35.991Z,17.7
2017-05-14T02:20:16.493Z,17.74
2017-05-14T02:20:56.992Z,17.68
2017-05-14T02:21:38.535Z,17.66
2017-05-14T02:22:19.017Z,17.64
2017-05-14T02:22:59.513Z,17.77
2017-05-14T02:23:40.023Z,17.71
2017-05-14T02:24:20.542Z,17.71
2017-05-14T02:25:01.042Z,17.63
2017-05-14T02:25:41.561Z,17.74
2017-05-14T02:26:22.396Z,17.72
2017-05-14T02:27:02.548Z,17.75
2017-05-14T02:27:43.056Z,17.78
2017-05-14T02:28:23.582Z,17.75
2017-05-14T02:29:04.128Z,17.77
2017-05-14T02:29:44.573Z,17.79
2017-05-14T02:30:25.085Z,17.75
2017-05-14T02:31:05.620Z,17.81
2017-05-14T02:31:46.156Z,17.89
2017-05-14T02:32:26.623Z,17.81
2017-05-14T02:33:07.099Z,17.79
2017-05-14T02:33:47.601Z,17.77
2017-05-14T02:34:28.114Z,17.68
2017-05-14T02:35:08.645Z,17.58
2017-05-14T02:35:49.127Z,17.71
2017-05-14T02:36:44.487Z,17.75
2017-05-14T02:37:24.979Z,17.71
2017-05-14T02:38:05.480Z,17.74
2017-05-14T02:38:45.986Z,17.75
2017-05-14T02:39:26.490Z,17.82
2017-05-14T02:40:07.022Z,17.71
2017-05-14T02:40:47.513Z,17.74
2017-05-14T02:41:28.019Z,17.75
2017-05-14T02:42:08.579Z,17.81
2017-05-14T02:42:49.051Z,17.71
2017-05-14T02:43:29.552Z,17.66
2017-05-14T02:44:10.040Z,17.7
2017-05-14T02:44:50.557Z,17.75
2017-05-14T02:45:31.056Z,17.74
2017-05-14T02:46:11.581Z,17.7
2017-05-14T02:46:53.250Z,17.7
2017-05-14T02:47:33.743Z,17.72
2017-05-14T02:48:14.244Z,17.7
2017-05-14T02:48:54.766Z,17.72
2017-05-14T02:49:35.269Z,17.62
2017-05-14T02:50:15.835Z,17.58
2017-05-14T02:50:56.307Z,17.59
2017-05-14T02:51:36.958Z,17.64
2017-05-14T02:52:17.480Z,17.63
2017-05-14T02:52:58.026Z,17.68
2017-05-14T02:53:38.482Z,17.75
2017-05-14T02:54:18.987Z,17.75
2017-05-14T02:54:59.501Z,17.79
2017-05-14T02:55:39.988Z,17.75
2017-05-14T02:56:21.937Z,17.75
2017-05-14T02:57:01.041Z,17.75
2017-05-14T02:57:41.587Z,17.82
2017-05-14T02:58:22.059Z,17.79
2017-05-14T02:59:02.571Z,17.71
2017-05-14T02:59:43.101Z,17.66
2017-05-14T03:00:23.575Z,17.64
2017-05-14T03:01:04.097Z,17.55
2017-05-14T03:01:44.695Z,17.59
2017-05-14T03:02:25.217Z,17.66
2017-05-14T03:03:05.734Z,17.71
2017-05-14T03:03:46.251Z,17.64
2017-05-14T03:04:26.765Z,17.77
2017-05-14T03:05:07.266Z,17.78
2017-05-14T03:05:47.779Z,17.77
2017-05-14T03:06:28.280Z,17.78
2017-05-14T03:07:08.793Z,17.59
2017-05-14T03:07:49.317Z,17.64
2017-05-14T03:08:29.848Z,17.63
2017-05-14T03:09:10.365Z,17.66
2017-05-14T03:09:50.907Z,17.55
2017-05-14T03:10:31.416Z,17.54
2017-05-14T03:11:11.970Z,17.62
2017-05-14T03:11:59.301Z,17.64
2017-05-14T03:12:39.805Z,17.66
2017-05-14T03:13:20.307Z,17.55
2017-05-14T03:14:00.824Z,17.59
2017-05-14T03:14:41.375Z,17.66
2017-05-14T03:15:21.849Z,17.71
2017-05-14T03:16:02.369Z,17.75
2017-05-14T03:16:45.468Z,17.78
2017-05-14T03:17:25.985Z,17.77
2017-05-14T03:18:06.510Z,17.77
2017-05-14T03:18:46.989Z,17.71
2017-05-14T03:19:27.509Z,17.68
2017-05-14T03:20:08.032Z,17.68
2017-05-14T03:20:48.486Z,17.72
2017-05-14T03:21:29.004Z,17.62
2017-05-14T03:22:09.513Z,17.59
2017-05-14T03:22:50.063Z,17.66
2017-05-14T03:23:30.536Z,17.64
2017-05-14T03:24:11.055Z,17.55
2017-05-14T03:24:51.574Z,17.71
2017-05-14T03:25:32.109Z,17.72
2017-05-14T03:26:12.629Z,17.66
2017-05-14T03:26:55.089Z,17.66
2017-05-14T03:27:35.593Z,17.71
2017-05-14T03:28:16.114Z,17.77
2017-05-14T03:28:56.628Z,17.75
2017-05-14T03:29:37.144Z,17.68
2017-05-14T03:30:17.653Z,17.74
2017-05-14T03:30:58.168Z,17.71
2017-05-14T03:31:42.342Z,17.84
2017-05-14T03:32:22.805Z,17.78
2017-05-14T03:33:03.338Z,17.75
2017-05-14T03:33:43.843Z,17.9
2017-05-14T03:34:24.356Z,17.84
2017-05-14T03:35:04.862Z,17.93
2017-05-14T03:35:45.369Z,17.87
2017-05-14T03:36:25.853Z,17.9
2017-05-14T03:37:06.345Z,17.9
2017-05-14T03:37:46.859Z,17.77
2017-05-14T03:38:27.346Z,17.72
2017-05-14T03:39:07.860Z,17.71
2017-05-14T03:39:48.332Z,17.75
2017-05-14T03:40:28.845Z,17.74
2017-05-14T03:41:09.340Z,17.75
2017-05-14T03:41:50.688Z,17.74
2017-05-14T03:42:31.166Z,17.59
2017-05-14T03:43:11.659Z,17.56
2017-05-14T03:43:52.154Z,17.55
2017-05-14T03:44:32.642Z,17.59
2017-05-14T03:45:13.137Z,17.64
2017-05-14T03:45:53.642Z,17.62
2017-05-14T03:46:35.192Z,17.56
2017-05-14T03:47:15.665Z,17.62
2017-05-14T03:47:56.190Z,17.62
2017-05-14T03:48:36.714Z,17.68
2017-05-14T03:49:17.222Z,17.49
2017-05-14T03:49:57.744Z,17.49
2017-05-14T03:50:38.262Z,17.54
2017-05-14T03:51:21.319Z,17.56
2017-05-14T03:52:00.950Z,17.56
2017-05-14T03:52:41.466Z,17.52
2017-05-14T03:53:21.987Z,17.55
2017-05-14T03:54:02.502Z,17.63
2017-05-14T03:54:43.015Z,17.7
2017-05-14T03:55:23.525Z,17.51
2017-05-14T03:56:04.042Z,17.51
2017-05-14T03:56:44.910Z,17.56
2017-05-14T03:57:25.425Z,17.51
2017-05-14T03:58:05.947Z,17.51
2017-05-14T03:58:46.461Z,17.48
2017-05-14T03:59:26.968Z,17.46
2017-05-14T04:00:07.481Z,17.41
2017-05-14T04:00:47.987Z,17.41
2017-05-14T04:01:28.532Z,17.41
2017-05-14T04:02:09.030Z,17.48
2017-05-14T04:02:49.545Z,17.31
2017-05-14T04:03:30.039Z,17.43
2017-05-14T04:04:10.541Z,17.43
2017-05-14T04:04:51.177Z,17.4
2017-05-14T04:06:29.032Z,17.52
2017-05-14T04:07:09.549Z,17.51
2017-05-14T04:07:50.062Z,17.51
2017-05-14T04:08:30.575Z,17.46
2017-05-14T04:09:11.092Z,17.43
2017-05-14T04:09:51.626Z,17.44
2017-05-14T04:10:32.148Z,17.41
2017-05-14T04:11:12.660Z,17.51
2017-05-14T04:11:54.414Z,17.46
2017-05-14T04:12:34.881Z,17.46
2017-05-14T04:13:15.382Z,17.36
2017-05-14T04:13:55.925Z,17.31
2017-05-14T04:14:36.379Z,17.33
2017-05-14T04:15:16.894Z,17.41
2017-05-14T04:15:57.410Z,17.4
2017-05-14T04:16:44.524Z,17.44
2017-05-14T04:17:25.004Z,17.48
2017-05-14T04:18:05.505Z,17.43
2017-05-14T04:18:46.026Z,17.37
2017-05-14T04:19:26.549Z,17.49
2017-05-14T04:20:07.067Z,17.4
2017-05-14T04:20:47.580Z,17.41
2017-05-14T04:21:28.212Z,17.43
2017-05-14T04:23:06.078Z,17.51
2017-05-14T04:23:46.598Z,17.46
2017-05-14T04:24:27.103Z,17.41
2017-05-14T04:25:07.673Z,17.44
2017-05-14T04:25:48.128Z,17.33
2017-05-14T04:26:28.632Z,17.46
2017-05-14T04:27:09.143Z,17.41
2017-05-14T04:27:49.664Z,17.48
2017-05-14T04:28:30.185Z,17.48
2017-05-14T04:29:10.709Z,17.58
2017-05-14T04:29:51.203Z,17.52
2017-05-14T04:30:31.687Z,17.36
2017-05-14T04:31:12.220Z,17.43
2017-05-14T04:31:57.711Z,17.46
2017-05-14T04:32:38.229Z,17.41
2017-05-14T04:33:18.758Z,17.51
2017-05-14T04:33:59.287Z,17.43
2017-05-14T04:34:39.794Z,17.49
2017-05-14T04:35:20.300Z,17.54
2017-05-14T04:36:00.817Z,17.48
2017-05-14T04:36:44.391Z,17.43
2017-05-14T04:38:32.345Z,17.54
2017-05-14T04:39:12.877Z,17.41
2017-05-14T04:39:53.432Z,17.4
2017-05-14T04:40:33.946Z,17.46
2017-05-14T04:41:57.675Z,17.55
2017-05-14T04:42:38.192Z,17.55
2017-05-14T04:43:18.737Z,17.49
2017-05-14T04:43:59.230Z,17.63
2017-05-14T04:44:39.747Z,17.58
2017-05-14T04:45:20.242Z,17.63
2017-05-14T04:46:00.740Z,17.64
2017-05-14T04:46:42.298Z,17.64
2017-05-14T04:47:22.812Z,17.72
2017-05-14T04:48:03.336Z,17.72
2017-05-14T04:48:43.847Z,17.55
2017-05-14T04:49:24.373Z,17.49
2017-05-14T04:50:04.890Z,17.54
2017-05-14T04:50:45.413Z,17.51
2017-05-14T04:51:25.942Z,17.48
2017-05-14T04:52:06.495Z,17.46
2017-05-14T04:52:46.956Z,17.55
2017-05-14T04:53:27.444Z,17.46
2017-05-14T04:54:07.964Z,17.51
2017-05-14T04:54:48.487Z,17.52
2017-05-14T04:55:29.009Z,17.41
2017-05-14T04:56:09.524Z,17.49
2017-05-14T04:56:53.361Z,17.48
2017-05-14T04:57:33.865Z,17.52
2017-05-14T04:58:14.460Z,17.58
2017-05-14T04:58:54.982Z,17.58
2017-05-14T04:59:35.491Z,17.56
2017-05-14T05:00:16.005Z,17.49
2017-05-14T05:00:56.500Z,17.56
2017-05-14T05:02:54.672Z,17.56
2017-05-14T05:03:35.187Z,17.58
2017-05-14T05:04:15.705Z,17.66
2017-05-14T05:04:56.222Z,17.72
2017-05-14T05:05:36.739Z,17.66
2017-05-14T05:06:21.919Z,17.63
2017-05-14T05:06:58.318Z,17.66
2017-05-14T05:07:38.841Z,17.64
2017-05-14T05:08:19.363Z,17.62
2017-05-14T05:08:59.889Z,17.64
2017-05-14T05:09:40.417Z,17.71
2017-05-14T05:10:20.950Z,17.78
2017-05-14T05:11:01.449Z,17.78
2017-05-14T05:11:44.450Z,17.68
2017-05-14T05:12:24.924Z,17.75
2017-05-14T05:13:05.481Z,17.64
2017-05-14T05:13:45.953Z,17.71
2017-05-14T05:14:26.453Z,17.74
2017-05-14T05:15:06.924Z,17.7
2017-05-14T05:15:47.409Z,17.72
2017-05-14T05:16:27.934Z,17.74
2017-05-14T05:17:08.421Z,17.72
2017-05-14T05:17:48.932Z,17.68
2017-05-14T05:18:29.440Z,17.74
2017-05-14T05:19:09.900Z,17.66
2017-05-14T05:19:50.414Z,17.55
2017-05-14T05:20:30.944Z,17.54
2017-05-14T05:21:11.442Z,17.59
2017-05-14T05:21:54.544Z,17.63
2017-05-14T05:22:35.028Z,17.64
2017-05-14T05:23:15.558Z,17.59
2017-05-14T05:23:56.067Z,17.72
2017-05-14T05:24:36.531Z,17.72
2017-05-14T05:25:17.065Z,17.78
2017-05-14T05:25:57.539Z,17.75
2017-05-14T05:26:39.979Z,17.72
2017-05-14T05:27:20.470Z,17.66
2017-05-14T05:28:00.958Z,17.75
2017-05-14T05:28:41.456Z,17.86
2017-05-14T05:29:21.965Z,17.78
2017-05-14T05:30:02.490Z,17.79
2017-05-14T05:30:43.001Z,17.87
2017-05-14T05:31:23.489Z,17.84
2017-05-14T05:32:04.016Z,17.9
2017-05-14T05:32:44.488Z,17.96
2017-05-14T05:33:25.013Z,17.97
2017-05-14T05:34:05.514Z,17.97
2017-05-14T05:34:46.003Z,18.02
2017-05-14T05:35:26.535Z,18
2017-05-14T05:36:07.051Z,18.02
2017-05-14T05:36:47.553Z,17.93
2017-05-14T05:37:28.044Z,17.92
2017-05-14T05:38:08.525Z,17.99
2017-05-14T05:38:49.081Z,18.03
2017-05-14T05:39:29.526Z,17.84
2017-05-14T05:40:10.011Z,17.95
2017-05-14T05:40:50.507Z,18
2017-05-14T05:41:31.034Z,18
2017-05-14T05:42:11.538Z,17.95
2017-05-14T05:42:52.060Z,17.87
2017-05-14T05:43:32.605Z,18
2017-05-14T05:44:13.077Z,18.03
2017-05-14T05:44:53.574Z,17.9
2017-05-14T05:45:34.066Z,17.9
2017-05-14T05:46:16.368Z,17.86
2017-05-14T05:46:57.075Z,17.96
2017-05-14T05:47:37.597Z,18
2017-05-14T05:48:18.124Z,17.86
2017-05-14T05:48:58.618Z,17.89
2017-05-14T05:49:39.116Z,17.97
2017-05-14T05:50:19.588Z,18.12
2017-05-14T05:51:00.094Z,18.2
2017-05-14T05:51:43.104Z,18.08
2017-05-14T05:52:23.593Z,18.25
2017-05-14T05:53:04.092Z,18.25
2017-05-14T05:53:44.610Z,18.17
2017-05-14T05:54:25.142Z,18.25
2017-05-14T05:55:05.654Z,18.25
2017-05-14T05:55:46.154Z,18.3
2017-05-14T05:56:26.669Z,18.44
2017-05-14T05:57:07.210Z,18.36
2017-05-14T05:57:47.700Z,18.45
2017-05-14T05:58:28.785Z,18.48
2017-05-14T05:59:09.266Z,18.57
2017-05-14T05:59:49.896Z,18.58
2017-05-14T06:00:30.292Z,18.54
2017-05-14T06:01:10.781Z,18.6
2017-05-14T06:01:54.867Z,18.65
2017-05-14T06:02:35.346Z,18.7
2017-05-14T06:03:16.057Z,18.75
2017-05-14T06:03:56.551Z,18.87
2017-05-14T06:04:37.075Z,18.84
2017-05-14T06:05:17.550Z,18.82
2017-05-14T06:05:58.056Z,18.87
2017-05-14T06:06:38.731Z,18.85
2017-05-14T06:07:19.251Z,18.99
2017-05-14T06:08:00.163Z,18.94
2017-05-14T06:08:40.710Z,19.02
2017-05-14T06:09:21.157Z,19.11
2017-05-14T06:10:01.668Z,19.11
2017-05-14T06:10:42.129Z,19.02
2017-05-14T06:11:22.666Z,18.99
2017-05-14T06:12:03.153Z,18.98
2017-05-14T06:12:43.850Z,18.98
2017-05-14T06:13:24.217Z,18.98
2017-05-14T06:14:04.725Z,18.95
2017-05-14T06:14:45.192Z,18.99
2017-05-14T06:15:25.833Z,18.95
2017-05-14T06:16:06.332Z,18.94
2017-05-14T06:16:46.850Z,18.98
2017-05-14T06:17:27.353Z,18.95
2017-05-14T06:18:07.858Z,18.95
2017-05-14T06:18:48.347Z,19.06
2017-05-14T06:19:28.848Z,19.08
2017-05-14T06:20:09.389Z,19
2017-05-14T06:20:49.884Z,19.08
2017-05-14T06:21:34.062Z,19.08
2017-05-14T06:22:14.565Z,19.02
2017-05-14T06:22:58.205Z,19.02
2017-05-14T06:23:38.739Z,19.19
2017-05-14T06:24:19.218Z,19.26
2017-05-14T06:25:00.417Z,19.16
2017-05-14T06:25:43.481Z,19.16
2017-05-14T06:26:24.396Z,19.19
2017-05-14T06:27:04.952Z,19.08
2017-05-14T06:27:45.384Z,19.04
2017-05-14T06:28:25.912Z,19.19
2017-05-14T06:29:06.383Z,19.07
2017-05-14T06:29:46.930Z,19.07
2017-05-14T06:30:27.445Z,19.02
2017-05-14T06:31:07.926Z,19.06
2017-05-14T06:31:48.745Z,19.07
2017-05-14T06:32:29.530Z,19.1
2017-05-14T06:33:09.974Z,19.08
2017-05-14T06:33:50.509Z,19.07
2017-05-14T06:34:30.978Z,19.1
2017-05-14T06:35:11.505Z,19.18
2017-05-14T06:35:51.972Z,19.07
2017-05-14T06:36:33.087Z,19.08
2017-05-14T06:37:13.586Z,19.13
2017-05-14T06:37:54.094Z,19.16
2017-05-14T06:38:34.566Z,19.14
2017-05-14T06:39:15.087Z,19.22
2017-05-14T06:39:55.576Z,19.29
2017-05-14T06:40:36.057Z,19.36
2017-05-14T06:41:20.749Z,19.39
2017-05-14T06:41:57.777Z,19.33
2017-05-14T06:42:39.016Z,19.43
2017-05-14T06:43:18.754Z,19.44
2017-05-14T06:43:59.482Z,19.51
2017-05-14T06:44:40.947Z,19.61
2017-05-14T06:45:21.479Z,19.48
2017-05-14T06:46:02.176Z,19.46
2017-05-14T06:46:45.520Z,19.51
2017-05-14T06:47:25.988Z,19.43
2017-05-14T06:48:06.614Z,19.25
2017-05-14T06:48:47.223Z,19.31
2017-05-14T06:49:27.678Z,19.32
2017-05-14T06:50:08.167Z,19.39
2017-05-14T06:50:48.664Z,19.36
2017-05-14T06:51:29.170Z,19.44
2017-05-14T06:52:09.761Z,19.43
2017-05-14T06:52:50.385Z,19.44
2017-05-14T06:53:30.747Z,19.41
2017-05-14T06:54:11.251Z,19.18
2017-05-14T06:54:53.051Z,19.22
2017-05-14T06:55:33.550Z,19.26
2017-05-14T06:56:14.173Z,19.31
2017-05-14T06:57:26.033Z,19.23
2017-05-14T06:58:06.543Z,19.25
2017-05-14T06:58:47.047Z,19.23
2017-05-14T06:59:27.548Z,19.29
2017-05-14T07:00:08.057Z,19.43
2017-05-14T07:00:48.536Z,19.4
2017-05-14T07:01:29.117Z,19.41
2017-05-14T07:02:10.347Z,19.39
2017-05-14T07:02:50.897Z,19.41
2017-05-14T07:03:31.362Z,19.54
2017-05-14T07:04:11.917Z,19.63
2017-05-14T07:04:52.421Z,19.41
2017-05-14T07:05:32.877Z,19.46
2017-05-14T07:06:13.318Z,19.39
2017-05-14T07:07:00.404Z,19.4
2017-05-14T07:07:40.893Z,19.39
2017-05-14T07:08:21.426Z,19.51
2017-05-14T07:09:02.078Z,19.54
2017-05-14T07:09:42.416Z,19.56
2017-05-14T07:10:22.918Z,19.55
2017-05-14T07:11:03.437Z,19.47
2017-05-14T07:12:59.483Z,19.63
2017-05-14T07:13:40.013Z,19.55
2017-05-14T07:14:20.476Z,19.32
2017-05-14T07:15:00.972Z,19.25
2017-05-14T07:15:41.460Z,19.36
2017-05-14T07:16:28.561Z,19.36
2017-05-14T07:17:08.952Z,19.36
2017-05-14T07:17:49.471Z,19.37
2017-05-14T07:18:29.977Z,19.44
2017-05-14T07:19:10.453Z,19.48
2017-05-14T07:19:51.027Z,19.41
2017-05-14T07:20:31.728Z,19.36
2017-05-14T07:21:12.186Z,19.4
2017-05-14T07:21:53.652Z,19.39
2017-05-14T07:22:34.222Z,19.21
2017-05-14T07:23:14.733Z,19.33
2017-05-14T07:23:55.761Z,19.39
2017-05-14T07:24:36.028Z,19.41
2017-05-14T07:25:16.558Z,19.41
2017-05-14T07:25:57.078Z,19.36
2017-05-14T07:26:39.616Z,19.31
2017-05-14T07:27:20.090Z,19.37
2017-05-14T07:28:00.608Z,19.39
2017-05-14T07:28:41.119Z,19.46
2017-05-14T07:29:21.640Z,19.47
2017-05-14T07:30:02.157Z,19.47
2017-05-14T07:30:42.665Z,19.61
2017-05-14T07:31:23.197Z,19.56
2017-05-14T07:32:03.776Z,19.62
2017-05-14T07:32:44.258Z,19.63
2017-05-14T07:33:24.908Z,19.63
2017-05-14T07:34:05.365Z,19.63
2017-05-14T07:34:45.853Z,19.62
2017-05-14T07:35:26.388Z,19.68
2017-05-14T07:36:06.917Z,19.69
2017-05-14T07:36:47.548Z,19.68
2017-05-14T07:37:28.050Z,19.78
2017-05-14T07:38:08.483Z,19.74
2017-05-14T07:40:21.868Z,19.81
2017-05-14T07:41:02.397Z,19.95
2017-05-14T07:41:42.903Z,19.91
2017-05-14T07:42:23.423Z,19.94
2017-05-14T07:43:03.908Z,19.99
2017-05-14T07:43:44.493Z,19.94
2017-05-14T07:44:24.923Z,19.92
2017-05-14T07:45:05.454Z,19.95
2017-05-14T07:45:45.925Z,20.1
2017-05-14T07:46:26.462Z,20.16
2017-05-14T07:47:06.944Z,20.17
2017-05-14T07:47:47.549Z,20.14
2017-05-14T07:48:28.011Z,20.23
2017-05-14T07:49:08.502Z,20.24
2017-05-14T07:49:48.970Z,20.32
2017-05-14T07:50:29.415Z,20.33
2017-05-14T07:51:09.934Z,20.36
2017-05-14T07:51:50.460Z,20.28
2017-05-14T07:52:31.468Z,20.38
2017-05-14T07:53:11.906Z,20.35
2017-05-14T07:53:52.411Z,20.5
2017-05-14T07:54:32.925Z,20.48
2017-05-14T07:55:13.454Z,20.5
2017-05-14T07:55:53.974Z,20.43
2017-05-14T07:56:34.463Z,20.58
2017-05-14T07:57:15.020Z,20.66
2017-05-14T07:57:55.520Z,20.73
2017-05-14T07:58:36.650Z,20.7
2017-05-14T07:59:17.984Z,20.72
2017-05-14T07:59:58.824Z,20.73
2017-05-14T08:00:39.072Z,20.76
2017-05-14T08:01:19.582Z,20.88
2017-05-14T08:02:00.102Z,20.95
2017-05-14T08:02:40.657Z,20.97
2017-05-14T08:03:21.074Z,20.87
2017-05-14T08:04:01.657Z,20.92
2017-05-14T08:04:42.128Z,20.84
2017-05-14T08:05:22.635Z,20.88
2017-05-14T08:06:03.189Z,20.97
2017-05-14T08:06:43.627Z,20.95
2017-05-14T08:07:24.188Z,20.99
2017-05-14T08:08:04.645Z,20.87
2017-05-14T08:08:45.171Z,21.01
2017-05-14T08:09:25.741Z,21.07
2017-05-14T08:10:06.208Z,20.95
2017-05-14T08:10:46.781Z,20.95
2017-05-14T08:11:27.183Z,21.01
2017-05-14T08:12:07.735Z,21.03
2017-05-14T08:12:48.226Z,21.03
2017-05-14T08:13:28.736Z,21.01
2017-05-14T08:14:09.240Z,20.89
2017-05-14T08:14:49.758Z,20.88
2017-05-14T08:15:30.215Z,20.94
2017-05-14T08:16:10.727Z,21.03
2017-05-14T08:16:52.100Z,21.03
2017-05-14T08:17:32.580Z,21.03
2017-05-14T08:18:13.061Z,21.09
2017-05-14T08:18:53.576Z,21.04
2017-05-14T08:19:34.063Z,21.03
2017-05-14T08:20:14.594Z,21.01
2017-05-14T08:20:55.129Z,20.91
2017-05-14T08:21:38.129Z,20.97
2017-05-14T08:22:18.637Z,20.98
2017-05-14T08:22:59.117Z,21.04
2017-05-14T08:23:39.631Z,21.1
2017-05-14T08:24:20.176Z,21.04
2017-05-14T08:25:00.628Z,21.07
2017-05-14T08:25:41.141Z,21.14
2017-05-14T08:26:21.657Z,21.22
2017-05-14T08:27:02.132Z,21.22
2017-05-14T08:27:42.666Z,21.19
2017-05-14T08:28:23.199Z,21.32
2017-05-14T08:29:04.261Z,21.31
2017-05-14T08:35:06.745Z,21.68
2017-05-14T08:36:04.383Z,21.71
2017-05-14T08:36:45.727Z,21.68
2017-05-14T08:37:26.281Z,21.68
2017-05-14T08:38:06.815Z,21.65
2017-05-14T08:38:47.361Z,21.72
2017-05-14T08:39:27.827Z,21.75
2017-05-14T08:40:08.458Z,21.69
2017-05-14T08:40:48.999Z,21.83
2017-05-14T08:41:29.559Z,21.82
2017-05-14T08:42:10.115Z,21.79
2017-05-14T08:42:50.611Z,21.82
2017-05-14T08:43:31.199Z,21.96
2017-05-14T08:44:11.691Z,21.8
2017-05-14T08:44:52.216Z,21.82
2017-05-14T08:45:32.811Z,21.84
2017-05-14T08:46:14.509Z,21.84
2017-05-14T08:46:57.197Z,21.77
2017-05-14T08:47:37.720Z,21.84
2017-05-14T08:48:18.233Z,21.84
2017-05-14T08:48:58.793Z,21.77
2017-05-14T08:49:39.304Z,21.71
2017-05-14T08:50:19.790Z,21.68
2017-05-14T08:51:00.306Z,21.68
2017-05-14T08:51:41.598Z,21.69
2017-05-14T08:52:22.132Z,21.74
2017-05-14T08:53:02.628Z,21.75
2017-05-14T08:53:43.206Z,21.77
2017-05-14T08:54:23.720Z,21.84
2017-05-14T08:55:04.269Z,21.86
2017-05-14T08:55:44.930Z,21.91
2017-05-14T08:56:25.637Z,21.8
2017-05-14T08:57:06.204Z,21.75
2017-05-14T08:57:46.862Z,21.92
2017-05-14T08:58:27.286Z,21.88
2017-05-14T08:59:08.063Z,22.06
2017-05-14T08:59:48.721Z,21.98
2017-05-14T09:00:29.170Z,21.92
2017-05-14T09:01:10.203Z,21.99
2017-05-14T09:01:52.101Z,21.99
2017-05-14T09:02:32.790Z,21.98